Time;durP1;ratioP1;P1;durP2;ratioP2;P2;SDS_P1;SDS_P2;PMS_P1;PMS_P2;Temp;Humidity;BMP_temperature;BMP_pressure;BME280_temperature;BME280_humidity;BME280_pressure;Samples;Min_cycle;Max_cycle;Signal;HPM_P1;HPM_P2
2021/08/15 00:01:00;;;;;;;2.08;0.50;;;17.70;99.90;;;;;;20520801;28;20055;-44
2021/08/15 00:11:02;;;;;;;2.25;0.55;;;17.80;99.90;;;;;;20519744;28;20057;-44
2021/08/15 00:21:03;;;;;;;2.83;0.95;;;17.80;99.90;;;;;;20518152;28;20047;-43
2021/08/15 00:31:05;;;;;;;2.63;0.75;;;18.00;99.90;;;;;;20512323;28;20047;-44
2021/08/15 00:41:06;;;;;;;2.17;0.80;;;18.10;99.90;;;;;;20512469;28;20502;-44
2021/08/15 00:51:07;;;;;;;5.10;1.27;;;18.10;99.90;;;;;;20516237;28;20035;-44
2021/08/15 01:01:10;;;;;;;4.35;1.13;;;18.00;99.90;;;;;;20513580;28;20057;-43
2021/08/15 01:11:11;;;;;;;2.80;0.98;;;17.80;99.90;;;;;;20517393;28;20058;-43
2021/08/15 01:21:13;;;;;;;3.00;0.90;;;17.60;99.90;;;;;;20511409;28;20047;-44
2021/08/15 01:31:14;;;;;;;2.88;1.05;;;17.60;99.90;;;;;;20528026;28;20616;-44
2021/08/15 01:41:16;;;;;;;3.70;1.63;;;17.60;99.90;;;;;;20509654;28;20522;-44
2021/08/15 01:51:18;;;;;;;6.10;1.50;;;17.60;99.90;;;;;;20514740;28;20058;-43
2021/08/15 02:01:21;;;;;;;2.83;1.30;;;17.70;99.90;;;;;;20513753;28;20039;-44
2021/08/15 02:11:22;;;;;;;3.05;1.33;;;17.50;99.90;;;;;;20518370;28;20035;-44
2021/08/15 02:21:23;;;;;;;2.05;0.93;;;17.50;99.90;;;;;;20510628;28;20114;-43
2021/08/15 02:41:35;;;;;;;4.05;1.50;;;17.40;99.90;;;;;;20825713;23;20412;-83
2021/08/15 02:51:36;;;;;;;5.45;1.27;;;17.40;99.90;;;;;;20417660;28;20041;-83
2021/08/15 03:01:38;;;;;;;4.50;1.60;;;17.30;99.90;;;;;;20423145;28;20046;-82
2021/08/15 03:11:39;;;;;;;4.78;1.65;;;17.30;99.90;;;;;;20385486;28;20484;-82
2021/08/15 03:21:40;;;;;;;2.80;1.02;;;17.10;99.90;;;;;;20379996;28;20040;-82
2021/08/15 03:31:43;;;;;;;3.58;1.23;;;17.10;99.90;;;;;;20388635;28;20043;-82
2021/08/15 03:41:44;;;;;;;5.70;2.08;;;17.00;99.90;;;;;;20317382;28;20044;-83
2021/08/15 03:51:45;;;;;;;4.82;1.90;;;17.00;99.90;;;;;;20280601;29;20044;-82
2021/08/15 04:01:47;;;;;;;3.90;1.65;;;17.00;99.90;;;;;;20347833;28;20418;-83
2021/08/15 04:11:48;;;;;;;4.15;1.90;;;17.00;99.90;;;;;;20382318;28;20046;-82
2021/08/15 04:21:49;;;;;;;4.20;1.90;;;16.90;99.90;;;;;;20364203;28;20496;-82
2021/08/15 04:31:50;;;;;;;3.65;1.77;;;17.00;99.90;;;;;;20370911;28;20044;-83
2021/08/15 04:41:51;;;;;;;2.40;1.08;;;17.00;99.90;;;;;;20360763;28;20047;-83
2021/08/15 04:51:54;;;;;;;5.05;2.47;;;17.10;99.90;;;;;;20361735;28;20041;-83
2021/08/15 05:01:56;;;;;;;3.78;1.60;;;17.00;99.90;;;;;;20311706;28;20067;-83
2021/08/15 05:11:57;;;;;;;3.83;1.60;;;16.90;99.90;;;;;;20428620;28;20539;-83
2021/08/15 05:21:59;;;;;;;16.35;1.83;;;17.00;99.90;;;;;;20364452;28;20067;-82
2021/08/15 05:32:00;;;;;;;4.63;1.67;;;17.00;99.90;;;;;;20417569;28;20095;-82
2021/08/15 05:42:01;;;;;;;3.42;1.80;;;17.10;99.90;;;;;;20377955;28;20082;-82
2021/08/15 05:52:03;;;;;;;4.05;1.80;;;17.20;99.90;;;;;;20415084;28;20051;-82
2021/08/15 06:02:04;;;;;;;3.40;1.50;;;17.30;99.90;;;;;;20435487;28;20052;-83
2021/08/15 06:12:05;;;;;;;5.63;1.95;;;17.50;99.90;;;;;;20401772;28;20042;-82
2021/08/15 06:22:09;;;;;;;4.32;1.58;;;17.50;99.90;;;;;;20422353;28;20059;-83
2021/08/15 06:32:10;;;;;;;4.30;1.85;;;17.60;99.90;;;;;;20441421;28;20790;-82
2021/08/15 06:42:11;;;;;;;7.43;2.35;;;17.90;99.90;;;;;;20353264;28;20048;-82
2021/08/15 06:52:13;;;;;;;5.95;2.00;;;18.00;99.90;;;;;;20382633;28;20051;-83
2021/08/15 07:02:14;;;;;;;9.50;1.70;;;18.00;99.90;;;;;;20400256;28;20043;-83
2021/08/15 07:12:15;;;;;;;3.95;1.95;;;18.10;99.90;;;;;;20306954;28;20040;-83
2021/08/15 07:22:17;;;;;;;6.60;2.83;;;18.10;99.90;;;;;;20409416;28;20035;-83
2021/08/15 07:32:18;;;;;;;6.82;2.80;;;18.20;99.90;;;;;;20347124;28;20034;-82
2021/08/15 07:42:20;;;;;;;4.13;1.50;;;18.60;99.90;;;;;;20376732;28;20058;-82
2021/08/15 07:52:22;;;;;;;5.90;2.55;;;19.00;99.90;;;;;;20341388;28;20074;-83
2021/08/15 08:02:24;;;;;;;6.18;2.35;;;19.20;99.90;;;;;;20441517;28;20041;-83
2021/08/15 08:12:25;;;;;;;5.22;1.60;;;19.60;99.90;;;;;;20415839;28;20124;-82
2021/08/15 08:22:26;;;;;;;4.10;1.50;;;19.80;99.90;;;;;;20404982;28;20058;-82
2021/08/15 08:32:27;;;;;;;4.57;1.35;;;20.30;99.90;;;;;;20402602;28;20057;-82
2021/08/15 08:42:29;;;;;;;2.95;1.20;;;20.80;99.90;;;;;;20415084;28;20048;-82
2021/08/15 08:52:31;;;;;;;3.92;1.60;;;21.40;99.90;;;;;;20431502;28;20119;-82
2021/08/15 09:02:38;;;;;;;4.35;1.25;;;21.80;99.90;;;;;;20386273;28;20077;-82
2021/08/15 09:12:45;;;;;;;5.03;1.40;;;22.00;99.90;;;;;;20356731;28;20502;-82
2021/08/15 09:22:46;;;;;;;3.30;1.17;;;22.20;99.90;;;;;;20323303;29;20048;-82
2021/08/15 09:33:04;;;;;;;4.97;1.75;;;22.60;99.90;;;;;;20345050;28;20057;-82
2021/08/15 09:43:07;;;;;;;8.93;1.90;;;23.10;99.90;;;;;;20358613;28;20054;-81
2021/08/15 09:53:23;;;;;;;4.25;2.15;;;23.10;99.90;;;;;;20373573;28;20456;-81
2021/08/15 10:03:25;;;;;;;4.00;1.30;;;23.50;99.90;;;;;;20344136;28;20187;-81
2021/08/15 10:13:26;;;;;;;7.07;1.10;;;23.60;99.90;;;;;;20320020;28;20107;-81
2021/08/15 10:23:36;;;;;;;2.83;1.27;;;24.20;99.90;;;;;;20387846;28;20040;-81
2021/08/15 10:33:54;;;;;;;4.13;1.00;;;24.30;99.90;;;;;;20414421;28;20035;-81
2021/08/15 10:43:58;;;;;;;3.42;0.80;;;24.40;99.90;;;;;;20355903;28;21289;-81
2021/08/15 10:53:59;;;;;;;1.85;0.40;;;24.40;99.90;;;;;;20366506;28;20059;-81
2021/08/15 11:04:00;;;;;;;1.67;0.47;;;24.90;99.90;;;;;;20341531;28;20052;-81
2021/08/15 11:14:23;;;;;;;1.50;0.55;;;24.80;99.90;;;;;;20325850;28;20142;-81
2021/08/15 11:24:24;;;;;;;1.17;0.40;;;24.90;99.90;;;;;;20421101;28;20191;-81
2021/08/15 11:34:27;;;;;;;3.15;0.80;;;24.40;99.90;;;;;;20353823;28;20074;-80
2021/08/15 11:44:55;;;;;;;3.15;0.60;;;24.70;99.90;;;;;;20355333;28;20654;-81
2021/08/15 11:54:56;;;;;;;1.33;0.55;;;24.50;99.90;;;;;;20439041;28;20054;-81
2021/08/15 12:04:58;;;;;;;1.17;0.40;;;24.70;99.90;;;;;;20418525;28;20047;-81
2021/08/15 12:15:07;;;;;;;2.50;0.60;;;25.30;99.90;;;;;;20387190;28;20054;-81
2021/08/15 12:25:08;;;;;;;1.45;0.40;;;25.30;99.90;;;;;;20395910;28;20046;-81
2021/08/15 12:35:09;;;;;;;0.95;0.32;;;25.40;99.90;;;;;;20394016;28;20079;-80
2021/08/15 12:45:12;;;;;;;1.20;0.47;;;25.20;99.90;;;;;;20402722;28;20047;-81
2021/08/15 12:55:16;;;;;;;3.28;0.47;;;25.60;99.90;;;;;;20439287;28;20258;-81
2021/08/15 13:05:18;;;;;;;2.65;0.40;;;25.50;99.90;;;;;;20379784;28;20070;-80
2021/08/15 13:15:20;;;;;;;1.58;0.30;;;25.80;99.90;;;;;;20432903;28;20036;-81
2021/08/15 13:25:21;;;;;;;1.88;0.60;;;25.60;99.90;;;;;;20423869;28;20040;-81
2021/08/15 13:35:23;;;;;;;1.77;0.52;;;25.70;99.90;;;;;;20424998;28;20047;-81
2021/08/15 13:45:24;;;;;;;3.40;0.90;;;25.20;99.90;;;;;;20472312;28;20047;-81
2021/08/15 13:55:25;;;;;;;2.13;0.75;;;25.30;99.90;;;;;;20398974;28;20043;-81
2021/08/15 14:05:26;;;;;;;2.13;0.60;;;25.90;99.90;;;;;;20431237;28;20134;-81
2021/08/15 14:15:27;;;;;;;3.20;0.52;;;25.90;99.90;;;;;;20334106;28;20035;-81
2021/08/15 14:25:29;;;;;;;5.38;1.00;;;25.60;99.90;;;;;;20391409;28;20085;-81
2021/08/15 14:35:30;;;;;;;1.75;0.65;;;25.40;99.90;;;;;;20370086;28;20055;-81
2021/08/15 14:45:33;;;;;;;3.13;1.05;;;24.90;99.90;;;;;;20352898;28;20045;-81
2021/08/15 14:55:35;;;;;;;2.55;0.98;;;24.90;99.90;;;;;;20354612;28;20051;-81
2021/08/15 15:05:36;;;;;;;4.20;0.55;;;25.00;99.90;;;;;;20336458;28;20058;-81
2021/08/15 15:15:37;;;;;;;2.50;1.10;;;25.60;99.90;;;;;;20267788;28;20067;-81
2021/08/15 15:25:38;;;;;;;1.35;0.70;;;25.40;99.90;;;;;;20311178;28;20043;-81
2021/08/15 15:35:39;;;;;;;1.88;0.60;;;25.50;99.90;;;;;;20355690;28;20044;-81
2021/08/15 15:45:40;;;;;;;1.98;0.65;;;25.20;99.90;;;;;;20366418;28;20070;-81
2021/08/15 15:55:43;;;;;;;3.22;0.95;;;24.70;99.90;;;;;;20299658;28;20050;-81
2021/08/15 16:05:48;;;;;;;1.85;0.88;;;24.50;99.90;;;;;;20355062;28;20064;-81
2021/08/15 16:15:49;;;;;;;3.65;1.20;;;24.50;99.90;;;;;;20359945;28;20047;-81
2021/08/15 16:25:50;;;;;;;1.38;0.50;;;24.40;99.90;;;;;;20360521;28;20048;-81
2021/08/15 16:35:51;;;;;;;5.22;1.02;;;24.10;99.90;;;;;;20357034;28;20051;-81
2021/08/15 16:45:52;;;;;;;3.70;0.70;;;23.80;99.90;;;;;;20400357;28;21184;-80
2021/08/15 16:55:54;;;;;;;3.45;0.93;;;23.70;99.90;;;;;;20375562;28;20053;-81
2021/08/15 17:05:55;;;;;;;3.67;0.95;;;23.60;99.90;;;;;;20375778;28;20036;-81
2021/08/15 17:15:56;;;;;;;3.80;1.10;;;23.30;99.90;;;;;;20329411;28;20063;-81
2021/08/15 17:25:57;;;;;;;3.83;0.77;;;23.20;99.90;;;;;;20405495;28;20490;-85
2021/08/15 17:36:00;;;;;;;2.67;1.33;;;23.10;99.90;;;;;;20398119;28;20406;-88
2021/08/15 17:46:04;;;;;;;4.68;0.90;;;22.90;99.90;;;;;;20360121;28;20518;-81
2021/08/15 17:56:05;;;;;;;1.48;0.57;;;22.50;99.90;;;;;;20381496;28;20044;-81
2021/08/15 18:06:07;;;;;;;3.30;0.77;;;22.40;99.90;;;;;;20297821;28;20052;-81
2021/08/15 18:16:08;;;;;;;2.88;1.15;;;22.20;99.90;;;;;;20388752;28;20044;-81
2021/08/15 18:26:09;;;;;;;2.30;0.93;;;22.00;99.90;;;;;;20366014;28;20051;-81
2021/08/15 18:36:10;;;;;;;2.53;0.68;;;21.70;99.90;;;;;;20414774;28;20403;-81
2021/08/15 18:46:12;;;;;;;1.17;0.43;;;21.70;99.90;;;;;;20405984;28;20345;-81
2021/08/15 18:56:13;;;;;;;2.25;0.60;;;21.50;99.90;;;;;;20399040;28;20051;-81
2021/08/15 19:06:14;;;;;;;1.45;0.68;;;21.20;99.90;;;;;;20450073;28;20060;-81
2021/08/15 19:16:15;;;;;;;4.53;1.17;;;21.00;99.90;;;;;;20409423;28;20054;-81
2021/08/15 19:26:17;;;;;;;6.20;1.60;;;20.80;99.90;;;;;;20406686;28;20043;-81
2021/08/15 19:36:22;;;;;;;1.73;0.63;;;20.80;99.90;;;;;;20423401;28;20039;-81
2021/08/15 19:46:25;;;;;;;8.38;0.90;;;20.40;99.90;;;;;;20394402;28;20083;-81
2021/08/15 19:56:29;;;;;;;1.95;0.63;;;20.10;99.90;;;;;;20432646;28;20090;-81
2021/08/15 20:06:30;;;;;;;1.05;0.35;;;19.90;99.90;;;;;;20433206;28;20039;-82
2021/08/15 20:16:31;;;;;;;1.92;0.40;;;19.60;99.90;;;;;;20398516;28;20070;-80
2021/08/15 20:26:32;;;;;;;1.77;0.73;;;19.40;99.90;;;;;;20361183;28;20036;-82
2021/08/15 20:36:34;;;;;;;1.13;0.40;;;19.30;99.90;;;;;;20319626;28;20051;-82
2021/08/15 20:46:35;;;;;;;1.33;0.38;;;19.20;99.90;;;;;;20346473;28;20050;-82
2021/08/15 20:56:39;;;;;;;6.55;1.27;;;19.20;99.90;;;;;;20386148;28;20039;-82
2021/08/15 21:06:40;;;;;;;3.20;0.65;;;19.10;99.90;;;;;;20357406;28;20032;-82
2021/08/15 21:16:42;;;;;;;2.90;0.73;;;18.90;99.90;;;;;;20388102;28;20087;-82
2021/08/15 21:26:45;;;;;;;5.18;1.02;;;18.90;99.90;;;;;;20437157;28;20031;-82
2021/08/15 21:36:46;;;;;;;3.95;0.60;;;18.70;99.90;;;;;;20375953;28;20118;-82
2021/08/15 21:46:48;;;;;;;3.90;0.75;;;18.50;99.90;;;;;;20337509;28;20043;-81
2021/08/15 21:56:49;;;;;;;2.65;0.77;;;18.30;99.90;;;;;;20404419;28;20039;-82
2021/08/15 22:06:51;;;;;;;2.50;1.00;;;18.20;99.90;;;;;;20375743;28;20586;-82
2021/08/15 22:16:53;;;;;;;8.05;1.58;;;18.00;99.90;;;;;;20368357;28;20043;-82
2021/08/15 22:26:56;;;;;;;3.97;0.85;;;17.90;99.90;;;;;;20331310;28;20402;-82
2021/08/15 22:36:57;;;;;;;5.30;1.65;;;17.90;99.90;;;;;;20373335;28;20048;-82
2021/08/15 22:46:58;;;;;;;4.82;1.23;;;17.80;99.90;;;;;;20426077;28;20076;-81
2021/08/15 22:56:59;;;;;;;4.18;1.23;;;17.90;99.90;;;;;;20329753;28;20772;-82
2021/08/15 23:07:01;;;;;;;12.63;1.15;;;17.80;99.90;;;;;;20397865;28;20036;-82
2021/08/15 23:17:02;;;;;;;8.98;2.00;;;17.80;99.90;;;;;;20374713;28;20044;-82
2021/08/15 23:27:04;;;;;;;4.63;2.00;;;17.90;99.90;;;;;;20375541;28;20121;-82
2021/08/15 23:37:08;;;;;;;9.65;1.55;;;17.90;99.90;;;;;;20399427;28;20048;-82
2021/08/15 23:47:10;;;;;;;9.48;1.13;;;18.00;99.90;;;;;;20441223;28;20043;-82
2021/08/15 23:57:11;;;;;;;8.13;1.90;;;18.10;99.90;;;;;;20452222;28;20048;-81
